Polarstern — DBLK — position and weather

sailwx.info

Track history (hours):
 
Tides and Currents Weather Stations Pressure Air Temp Water Temp Dewpoint Dewpoint Depression Visibility Wind Speed Wind Dir Waves Ship Positions

Oceanographic research ship Polarstern (Germany)

Detailed information on ship capabilities available from University of Delaware's Ocean Information Center and ARCUS's ALIAS (Arctic Logistics Information and Support) project.

Last reported at 2015-Aug-04 12:00 UTC. Time now 2015-Aug-04 15:53 UTC.
Position N 79°48' E 004°18'.

Length 117.9 m; beam 25 m; draft 10.7 m.

MMSI: 211202460.

Wind from 200 at 16 knots

Barometer 1021.4 mb
Air temperature 4.8 ° C
Visibility: greater than 2.2 NM
Dewpoint 4.7 ° C
Water temperature 2.3 ° C

Date/timePositionNaut miles runAvg speedWind from/ knotsBaromVisibWave heightAir tempDewpointWater temp
2015-Aug-04 12:00N 79°48' E 004°18'6 6.0 200 / 161021.4 2.2 4.8 4.7 2.3
2015-Aug-04 11:00N 79°42' E 004°18'0 0.0 200 / 141021.5 3.7 3.7 2.1
2015-Aug-04 10:00N 79°42' E 004°18'0 0.0 210 / 141021.3 3.8 3.8 1.5
2015-Aug-04 09:00N 79°42' E 004°18'6 1.5 220 / 121021.0 0.1 3.1 3.1 2.0
2015-Aug-04 05:00N 79°48' E 004°18'6 6.4 190 / 81020.3 5.4 5.4 1.4
2015-Aug-04 04:00N 79°42' E 004°30'0 0.0 180 / 61019.9 6.8 6.8 2.3
2015-Aug-04 03:00N 79°42' E 004°30'1 1.1 180 / 81019.9 5.5 4.8 2.2
2015-Aug-04 02:00N 79°42' E 004°36'7 7.4 150 / 81020.0 6.4 5.5 0.8
2015-Aug-04 01:00N 79°36' E 005°00'3 3.2 140 / 61020.0 5.4 4.3 0.8
2015-Aug-04 00:00N 79°36' E 005°18'0 0.0 120 / 61020.2 5.3 4.1 4.7
2015-Aug-03 23:00N 79°36' E 005°18'1 1.1 090 / 21020.1 5.2 2.8 3.6
2015-Aug-03 22:00N 79°36' E 005°12'0 0.0 200 1020.2 5.7 3.8 5.0
2015-Aug-03 21:00N 79°36' E 005°12'0 0.0 170 1020.2 5.4 3.4 6.0
2015-Aug-03 20:00N 79°36' E 005°12'0 0.0 290 / 21020.0 5.1 3.0 7.1
2015-Aug-03 19:00N 79°36' E 005°12'7 6.8 290 / 21019.7 4.8 3.4 5.9
2015-Aug-03 18:00N 79°42' E 004°54'6 6.4 230 / 21019.727.0 5.0 3.3 1.6
2015-Aug-03 17:00N 79°42' E 004°18'0 0.0 230 / 41019.7 4.0 2.5 1.4
2015-Aug-03 15:00N 79°42' E 004°18'0 0.0 270 / 21019.610.8 5.2 3.1 1.7
2015-Aug-03 14:00N 79°42' E 004°18'1 0.5 320 / 21019.8 5.0 2.8 2.6
2015-Aug-03 12:00N 79°42' E 004°24'6 6.0 330 / 41019.510.8 5.2 3.4 2.7
2015-Aug-03 11:00N 79°48' E 004°24'0 0.0 320 / 41019.5 5.5 4.0 3.3
2015-Aug-03 09:00N 79°48' E 004°24'4 4.3 340 / 41019.410.8 5.0 3.6 6.9
2015-Aug-03 08:00N 79°48' E 004°00'8 8.0 340 / 61019.4 4.7 3.1 7.7
2015-Aug-03 07:00N 79°54' E 003°30'3 3.2 330 / 41019.3 3.4 1.7 5.8
2015-Aug-03 06:00N 79°54' E 003°12'0 0.0 310 / 61019.010.8 2.8 1.5 3.2
2015-Aug-03 05:00N 79°54' E 003°12'0 0.0 310 / 81019.0 2.5 0.7 3.2
2015-Aug-03 04:00N 79°54' E 003°12'0 0.0 310 / 61019.1 2.2 0.8 3.3
2015-Aug-03 03:00N 79°54' E 003°12'0 0.0 310 / 81019.2 2.1 0.5 3.5
2015-Aug-03 02:00N 79°54' E 003°12'0 0.0 310 / 61019.4 2.1 0.5 2.9
2015-Aug-03 01:00N 79°54' E 003°12'0 0.0 350 / 61019.6 1.5 0.1 3.5
2015-Aug-03 00:00N 79°54' E 003°12'0 0.0 340 / 61019.9 1.8 0.2 3.8
2015-Aug-02 23:00N 79°54' E 003°12'0 0.0 310 / 41019.9 2.9 0.9 3.0
2015-Aug-02 22:00N 79°54' E 003°12'0 0.0 310 / 41020.0 2.8 0.9 4.0
2015-Aug-02 21:00N 79°54' E 003°12'0 0.0 340 / 41020.0 2.7 1.0 4.2
2015-Aug-02 20:00N 79°54' E 003°12'0 0.0 020 / 41020.0 2.8 0.9 3.8
2015-Aug-02 19:00N 79°54' E 003°12'0 0.0 340 / 61020.2 2.5 0.9 3.7
2015-Aug-02 18:00N 79°54' E 003°12'7 6.8 340 / 61020.110.8 3.1 1.4 3.0
2015-Aug-02 17:00N 80°00' E 003°30'0 0.0 290 / 41020.2 4.2 2.7 1.6
2015-Aug-02 16:00N 80°00' E 003°30'0 0.0 260 / 41020.3 4.3 1.9 1.4
2015-Aug-02 15:00N 80°00' E 003°30'1 1.0 250 / 41020.3 5.4 5.0 1.5 1.2
2015-Aug-02 14:00N 80°00' E 003°24'1 1.0 180 / 21020.6 4.5 2.6 1.8
2015-Aug-02 13:00N 80°00' E 003°18'6 6.0 170 / 21020.8 5.4 2.7 3.2
2015-Aug-02 12:00N 79°54' E 003°18'0 0.0 230 / 21020.7 5.4 4.8 2.0 3.0
2015-Aug-02 11:00N 79°54' E 003°18'0 0.0 260 / 21020.5 3.9 1.0 3.1
2015-Aug-02 10:00N 79°54' E 003°18'6 6.0 260 / 41020.7 3.3 2.0 3.1
2015-Aug-02 09:00N 80°00' E 003°18'6 3.0 200 / 41020.6 5.4 2.9 1.3 1.6
2015-Aug-02 07:00N 79°54' E 003°18'6 6.4 340 / 41020.0 3.2 0.9 2.9
2015-Aug-02 06:00N 79°48' E 003°30'7 6.8 310 / 61020.210.8 3.7 1.4 1.6
2015-Aug-02 05:00N 79°42' E 003°48'1212.2 300 / 61020.3 2.9 1.3 1.6
2015-Aug-02 04:00N 79°30' E 004°00'6 6.1 330 / 21020.4 2.9 1.3 0.1
2015-Aug-02 03:00N 79°24' E 003°54'9 9.0 350 / 21020.8 4.7 2.2 3.8
2015-Aug-02 02:00N 79°18' E 003°18'8 7.8 010 / 21020.9 2.9 1.4 3.8
2015-Aug-02 01:00N 79°18' E 002°36'4 4.5 360 / 41021.1 2.0 1.1 5.1
2015-Aug-02 00:00N 79°18' E 002°12'1212.2 350 / 41021.1 3.2 2.0 7.6
2015-Aug-01 23:00N 79°06' E 002°00'6 6.1 310 / 61021.3 2.1 1.5 3.0
2015-Aug-01 22:00N 79°00' E 001°54'6 6.4 340 / 61021.4 2.3 1.4-1.1
2015-Aug-01 21:00N 78°54' E 001°42'7 6.9 360 / 61021.5 0.8 0.1-0.5
2015-Aug-01 20:00N 78°48' E 001°24'5 4.7 020 / 81021.6 0.4-0.4-1.2
2015-Aug-01 19:00N 78°48' E 001°00'2 2.3 360 / 81021.6 0.9-0.5-0.8
2015-Aug-01 18:00N 78°48' E 000°48'1010.1 350 / 101021.810.8 0.1-0.2 1.0
2015-Aug-01 17:00N 78°54' E 000°06'7 6.9 360 / 81021.9 0.4-0.0 3.6
2015-Aug-01 16:00N 78°54' W 000°30'2 2.3 360 / 101022.0 0.7 0.1 3.1
2015-Aug-01 15:00N 78°54' W 000°42'0 0.0 360 / 81022.110.8 0.5 1.0 0.5 4.1
2015-Aug-01 14:00N 78°54' W 000°42'1 1.2 020 / 101022.3 1.1 0.6 4.2
2015-Aug-01 13:00N 78°54' W 000°48'1 1.2 030 / 101022.3 1.2 0.7 4.2
2015-Aug-01 12:00N 78°54' W 000°42'0 0.0 020 / 141022.110.8 0.5 1.0 0.3 4.6
2015-Aug-01 11:00N 78°54' W 000°42'0 0.0 010 / 141021.8 0.9 0.3 4.1
2015-Aug-01 10:00N 78°54' W 000°42'0 0.0 010 / 121021.7 0.8 0.1 5.1
2015-Aug-01 09:00N 78°54' W 000°42'0 0.0 020 / 101021.710.8 0.5 1.1 0.2 4.7
2015-Aug-01 08:00N 78°54' W 000°42'0 0.0 020 / 121021.4 1.2 0.3 5.3
2015-Aug-01 07:00N 78°54' W 000°42'0 0.0 010 / 161021.1 1.1 0.2 4.3
2015-Aug-01 06:00N 78°54' W 000°42'5 4.6 020 / 141021.110.8 1.3-0.0 4.5
2015-Aug-01 05:00N 78°54' W 001°06'8 8.1 010 / 161020.8 1.0-0.0 3.9
2015-Aug-01 04:00N 78°54' W 001°48'6 5.8 010 / 161021.0 1.2 0.4 5.9
2015-Aug-01 03:00N 78°54' W 002°18'7 6.9 360 / 171021.3 1.1 0.3 1.0
2015-Aug-01 02:00N 78°54' W 002°54'2 2.3 360 / 171021.5 0.8 0.2-0.7
2015-Aug-01 01:00N 78°54' W 003°06'1 1.2 360 / 161022.0 0.6 0.2-0.3
2015-Aug-01 00:00N 78°54' W 003°00'0 0.0 350 / 171021.8 0.8 0.4-0.7
2015-Jul-31 23:00N 78°54' W 003°00'0 0.0 350 / 171022.1 0.9 0.4-1.2
2015-Jul-31 22:00N 78°54' W 003°00'0 0.0 350 / 171022.1 0.7 0.4-1.0
2015-Jul-31 21:00N 78°54' W 003°00'0 0.0 360 / 171022.2 1.4 0.6-1.2
2015-Jul-31 20:00N 78°54' W 003°00'0 0.0 010 / 171022.3 1.2 0.3-1.3
2015-Jul-31 19:00N 78°54' W 003°00'0 0.0 360 / 171022.1 1.0 0.2-1.3
2015-Jul-31 18:00N 78°54' W 003°00'0 0.0 360 / 171022.310.8 0.5 1.1 0.5-1.2
2015-Jul-31 17:00N 78°54' W 003°00'0 0.0 360 / 161022.5 0.9 0.2-1.2
2015-Jul-31 16:00N 78°54' W 003°00'1 1.2 360 / 171022.8 1.1 0.2-1.0
2015-Jul-31 15:00N 78°54' W 002°54'6 6.1 010 / 171022.410.8 0.5 1.1 0.6-0.8
2015-Jul-31 14:00N 78°48' W 002°48'1212.1 010 / 171022.3 0.7 0.6-0.5
2015-Jul-31 13:00N 78°36' W 002°54'6 6.1 360 / 171022.2 0.1 0.1-0.6
2015-Jul-31 12:00N 78°30' W 002°48'6 6.0 010 / 161022.2 2.2 0.5 0.2 0.2 2.1
2015-Jul-31 11:00N 78°36' W 002°48'0 0.0 020 / 161022.4 0.2 0.2 2.4
2015-Jul-31 10:00N 78°36' W 002°48'2 2.4 010 / 161022.4 0.2 0.2 1.9
2015-Jul-31 09:00N 78°36' W 003°00'1 1.2 010 / 161022.2 0.1 0.5-0.2-0.2-0.1
2015-Jul-31 08:00N 78°36' W 002°54'0 0.0 010 / 161022.1 -0.1-0.1-0.0
2015-Jul-31 07:00N 78°36' W 002°54'2 2.4 020 / 171021.8 -0.1-0.1 0.2
2015-Jul-31 06:00N 78°36' W 002°42'6 6.0 020 / 141021.9 0.3 0.1 0.1-1.3
2015-Jul-31 05:00N 78°42' W 002°42'1212.0 020 / 141022.1 0.3 0.3-0.8
2015-Jul-31 04:00N 78°54' W 002°42'0 0.0 010 / 141022.0 0.2 0.2-1.2
2015-Jul-31 03:00N 78°54' W 002°42'0 0.0 020 / 121022.1 0.4 0.4-0.9
2015-Jul-31 02:00N 78°54' W 002°42'0 0.0 030 / 121022.4 0.5 0.5-1.1
2015-Jul-31 00:00N 78°54' W 002°42'0 0.0 030 / 161022.1 0.3 0.3-0.7
2015-Jul-30 23:00N 78°54' W 002°42'0 0.0 020 / 141022.0 0.3 0.3-0.4
2015-Jul-30 22:00N 78°54' W 002°42'0 0.0 030 / 121022.1 0.2 0.2-0.0
2015-Jul-30 21:00N 78°54' W 002°42'0 0.0 060 / 121022.1 0.1 0.1 0.2
2015-Jul-30 20:00N 78°54' W 002°42'1 1.2 040 / 171021.5 0.3 0.1-0.5
2015-Jul-30 19:00N 78°54' W 002°48'0 0.0 050 / 161021.7 0.1 0.1-0.5
2015-Jul-30 18:00N 78°54' W 002°48'0 0.0 050 / 171021.6 5.4 0.3 0.1-0.3
2015-Jul-30 17:00N 78°54' W 002°48'6 6.0 050 / 171021.1 0.4 0.3-0.1
2015-Jul-30 16:00N 78°48' W 002°48'6 1.2 050 / 171021.1 0.3 0.1 0.7
2015-Jul-30 11:00N 78°42' W 002°48'12 4.0 050 / 171019.8 0.9 0.8-0.3
2015-Jul-30 08:00N 78°30' W 002°48'0 0.0 080 / 121018.8 5.8 5.6 5.0
2015-Jul-30 07:00N 78°30' W 002°48'8 4.2 090 / 121018.4 6.1 6.1 5.2
2015-Jul-30 05:00N 78°36' W 002°18'7 7.1 090 / 141017.6 5.9 5.9 0.5
2015-Jul-30 04:00N 78°36' W 001°42'9 9.3 080 / 141017.3 5.7 5.7 2.2
2015-Jul-30 03:00N 78°42' W 001°06'9 9.2 080 / 161017.3 5.3 5.3 5.4
2015-Jul-30 02:00N 78°48' W 000°30'7 7.0 100 / 121017.4 5.5 5.5 3.7
2015-Jul-30 01:00N 78°48' E 000°06'8 8.3 110 / 121017.0 5.5 5.5 5.4
2015-Jul-30 00:00N 78°54' E 000°36'9 9.1 100 / 161016.8 4.4 4.4 0.3
2015-Jul-29 23:00N 79°00' E 001°12'8 8.0 100 / 161016.6 6.3 6.1-0.9
2015-Jul-29 22:00N 79°00' E 001°54'9 9.1 110 / 161016.3 6.0 5.8 3.8
2015-Jul-29 21:00N 79°06' E 002°30'3 3.4 100 / 161016.0 6.9 6.3 0.8
2015-Jul-29 20:00N 79°06' E 002°48'0 0.0 100 / 161015.8 7.6 6.0 1.2
2015-Jul-29 19:00N 79°06' E 002°48'0 0.0 110 / 161015.4 7.5 6.0 1.4
2015-Jul-29 18:00N 79°06' E 002°48'0 0.0 100 / 191014.8 5.4 7.3 6.3-0.1
2015-Jul-29 17:00N 79°06' E 002°48'0 0.0 090 / 161014.4 7.3 6.4-0.2
2015-Jul-29 16:00N 79°06' E 002°48'0 0.0 100 / 161014.0 6.9 6.5 0.9
2015-Jul-29 15:00N 79°06' E 002°48'2 2.3 110 / 161013.6 5.4 7.3 6.6 0.6
2015-Jul-29 14:00N 79°06' E 003°00'3 1.7 120 / 161013.6 7.1 6.4 3.2
2015-Jul-29 12:00N 79°06' E 003°18'0 0.0 110 / 141012.6 5.4 7.3 6.0 3.8
2015-Jul-29 11:00N 79°06' E 003°18'0 0.0 110 / 121012.4 6.9 6.3 3.8
2015-Jul-29 10:00N 79°06' E 003°18'0 0.0 120 / 121012.0 6.8 6.2 3.8
2015-Jul-29 09:00N 79°06' E 003°18'0 0.0 120 / 141011.3 2.2 0.5 6.6 6.0 4.0
2015-Jul-29 08:00N 79°06' E 003°18'0 0.0 110 / 171010.9 7.2 5.8 4.2
2015-Jul-29 07:00N 79°06' E 003°18'2 1.1 110 / 171010.7 6.9 6.4 4.9
2015-Jul-29 05:00N 79°06' E 003°30'0 0.0 080 / 121010.0 6.5 5.3 5.8
2015-Jul-29 03:00N 79°06' E 003°30'0 0.0 060 / 101010.1 6.1 5.8 7.0
2015-Jul-29 02:00N 79°06' E 003°30'0 0.0 030 / 61010.5 5.9 5.6 7.0
2015-Jul-29 01:00N 79°06' E 003°30'1 0.6 040 / 61010.7 6.2 5.4 7.1
2015-Jul-28 23:00N 79°06' E 003°36'0 0.0 090 / 61010.6 5.7 4.7 6.6
2015-Jul-28 22:00N 79°06' E 003°36'0 0.0 070 / 21010.7 5.3 4.5 7.1
2015-Jul-28 21:00N 79°06' E 003°36'0 0.0 100 / 21011.0 4.8 4.2 7.1
2015-Jul-28 20:00N 79°06' E 003°36'0 0.0 230 / 21011.0 4.7 3.9 7.1
2015-Jul-28 19:00N 79°06' E 003°36'0 0.0 200 / 21011.0 4.4 3.7 6.9
2015-Jul-28 18:00N 79°06' E 003°36'0 0.0 200 / 21011.510.8 4.1 3.7 6.9
2015-Jul-28 17:00N 79°06' E 003°36'6 5.7 060 / 41011.9 3.6 3.6 6.9
2015-Jul-28 16:00N 79°06' E 004°06'0 0.0 020 / 61012.4 3.5 3.5 7.2
2015-Jul-28 15:00N 79°06' E 004°06'0 0.0 360 / 121012.910.8 1.0 3.1 2.8 7.2
2015-Jul-28 14:00N 79°06' E 004°06'0 0.0 020 / 171013.2 3.5 2.5 7.2
2015-Jul-28 13:00N 79°06' E 004°06'0 0.0 360 / 171013.9 3.5 3.1 7.2
2015-Jul-28 12:00N 79°06' E 004°06'0 0.0 010 / 171014.810.8 1.0 3.2 2.5 7.2
2015-Jul-28 11:00N 79°06' E 004°06'0 0.0 010 / 191015.7 3.2 3.0 7.2
2015-Jul-28 10:00N 79°06' E 004°06'0 0.0 010 / 191016.0 3.2 2.0 7.2
2015-Jul-28 09:00N 79°06' E 004°06'0 0.0 020 / 191016.7 5.4 1.0 4.4 3.1 7.2
2015-Jul-28 08:00N 79°06' E 004°06'0 0.0 040 / 171017.0 5.1 2.9 7.2
2015-Jul-28 07:00N 79°06' E 004°06'0 0.0 040 / 161017.5 5.2 4.0 7.1
2015-Jul-28 06:00N 79°06' E 004°06'5 4.5 040 / 161017.610.8 0.5 5.0 2.2 7.2
2015-Jul-28 05:00N 79°06' E 003°42'0 0.0 060 / 161018.1 5.4 2.2 7.0
2015-Jul-28 04:00N 79°06' E 003°42'0 0.0 040 / 141018.7 5.5 2.3 7.2
2015-Jul-28 03:00N 79°06' E 003°42'0 0.0 050 / 121019.0 5.6 2.1 7.4
2015-Jul-28 02:00N 79°06' E 003°42'0 0.0 060 / 101019.3 5.6 2.1 7.7
2015-Jul-28 01:00N 79°06' E 003°42'0 0.0 090 / 41019.7 5.7 1.4 7.4
2015-Jul-28 00:00N 79°06' E 003°42'0 0.0 110 / 61020.1 5.7 1.0 7.7
2015-Jul-27 23:00N 79°06' E 003°42'2 2.3 100 / 61020.3 5.4 2.7 7.3
2015-Jul-27 22:00N 79°06' E 003°54'3 3.4 100 / 41020.3 5.2 2.6 7.2
2015-Jul-27 21:00N 79°06' E 004°12'0 0.0 130 / 41020.2 5.3 1.8 7.2
2015-Jul-27 20:00N 79°06' E 004°12'1 1.1 150 / 41020.6 5.0 1.7 7.3
2015-Jul-27 19:00N 79°06' E 004°18'0 0.0 170 / 81020.5 4.9 1.4 7.3
2015-Jul-27 18:00N 79°06' E 004°18'2 2.3 160 / 61020.610.8 4.8 1.4 7.2
2015-Jul-27 17:00N 79°06' E 004°06'6 6.4 130 / 101020.8 4.5 2.5 7.0
2015-Jul-27 16:00N 79°12' E 003°54'0 0.0 170 / 41020.8 4.6 1.8 6.9
2015-Jul-27 15:00N 79°12' E 003°54'8 7.5 160 / 61020.810.8 4.4 1.4 7.0
2015-Jul-27 14:00N 79°06' E 004°18'6 6.1 170 / 81021.0 4.6 1.8 7.2
2015-Jul-27 13:00N 79°00' E 004°24'0 0.0 160 / 101021.1 4.3 1.2 7.1
2015-Jul-27 12:00N 79°00' E 004°24'0 0.0 180 / 101020.910.8 0.5 4.1 1.9 7.0
2015-Jul-27 11:00N 79°00' E 004°24'7 6.9 170 / 121020.7 4.0 1.9 7.1
2015-Jul-27 10:00N 79°06' E 004°06'0 0.0 170 / 121020.6 4.2 2.2 7.1
2015-Jul-27 09:00N 79°06' E 004°06'0 0.0 170 / 121020.510.8 0.5 4.1 2.1 6.9
2015-Jul-27 08:00N 79°06' E 004°06'1 1.1 180 / 121020.3 4.0 2.4 7.1
2015-Jul-27 07:00N 79°06' E 004°12'1 1.1 180 / 141020.3 4.4 2.4 7.0
2015-Jul-27 06:00N 79°06' E 004°06'1 1.1 170 / 141020.210.8 0.5 4.0 2.9 7.0
2015-Jul-27 05:00N 79°06' E 004°12'0 0.0 170 / 161020.0 3.9 2.8 6.8
2015-Jul-27 04:00N 79°06' E 004°12'0 0.0 180 / 161019.9 4.0 2.3 6.9
2015-Jul-27 03:00N 79°06' E 004°12'1 1.1 170 / 171019.7 3.8 2.1 6.9
2015-Jul-27 02:00N 79°06' E 004°18'0 0.0 180 / 171020.0 3.8 1.9 6.8
2015-Jul-27 01:00N 79°06' E 004°18'0 0.0 180 / 171019.8 4.1 1.8 6.8
2015-Jul-27 00:00N 79°06' E 004°18'6 6.1 180 / 171019.8 4.4 1.7 6.8
2015-Jul-26 23:00N 79°00' E 004°12'0 0.0 180 / 161019.9 4.6 2.1 6.8
2015-Jul-26 22:00N 79°00' E 004°12'0 0.0 180 / 141019.9 4.5 2.1 6.8
2015-Jul-26 21:00N 79°00' E 004°12'0 0.0 170 / 141019.8 4.1 1.7 6.6
2015-Jul-26 20:00N 79°00' E 004°12'6 6.1 160 / 141019.6 3.8 1.7 7.0
2015-Jul-26 19:00N 79°06' E 004°06'0 0.0 160 / 101019.6 3.8 1.9 7.1
2015-Jul-26 18:00N 79°06' E 004°06'0 0.0 170 / 81019.710.8 4.1 2.1 6.4
2015-Jul-26 17:00N 79°06' E 004°06'0 0.0 180 / 61019.6 3.9 1.6 6.5
2015-Jul-26 16:00N 79°06' E 004°06'0 0.0 200 / 61019.6 3.6 1.4 6.7
2015-Jul-26 15:00N 79°06' E 004°06'0 0.0 240 / 61019.410.8 3.0 1.1 6.9
2015-Jul-26 14:00N 79°06' E 004°06'0 0.0 220 / 81019.2 2.2 0.7 7.1
2015-Jul-26 13:00N 79°06' E 004°06'0 0.0 240 / 81018.7 2.1 0.5 7.1
2015-Jul-26 12:00N 79°06' E 004°06'0 0.0 240 / 81018.427.0 2.0 0.5 7.0
2015-Jul-26 11:00N 79°06' E 004°06'0 0.0 250 / 81018.1 1.5-0.0 7.0
2015-Jul-26 10:00N 79°06' E 004°06'0 0.0 240 / 101017.6 1.2-0.1 6.7
2015-Jul-26 09:00N 79°06' E 004°06'0 0.0 250 / 101017.210.8 1.4-0.0 7.0
2015-Jul-26 08:00N 79°06' E 004°06'1 1.1 250 / 101016.4 1.2-0.3 6.9
2015-Jul-26 07:00N 79°06' E 004°12'0 0.0 250 / 121016.0 1.1-0.0 6.9
2015-Jul-26 06:00N 79°06' E 004°12'0 0.0 260 / 101015.510.8 1.4-0.5 6.9
2015-Jul-26 05:00N 79°06' E 004°12'0 0.0 260 / 101015.1 0.8-0.1 6.8
2015-Jul-26 04:00N 79°06' E 004°12'0 0.0 270 / 101014.6 0.8-0.2 6.9
2015-Jul-26 03:00N 79°06' E 004°12'0 0.0 280 / 121014.0 0.9-0.8 6.9
2015-Jul-26 02:00N 79°06' E 004°12'0 0.0 270 / 121013.7 0.9-0.2 7.0
2015-Jul-26 01:00N 79°06' E 004°12'0 0.0 270 / 101013.2 1.4 0.1 6.9
2015-Jul-26 00:00N 79°06' E 004°12'0 0.0 270 / 101012.7 1.2-0.2 6.9
2015-Jul-25 23:00N 79°06' E 004°12'0 0.0 270 / 101012.2 1.5 0.2 7.0
2015-Jul-25 22:00N 79°06' E 004°12'1 1.1 260 / 101011.6 1.3-0.1 7.1
2015-Jul-25 21:00N 79°06' E 004°18'0 0.0 260 / 101011.3 1.4 0.6 7.1
2015-Jul-25 20:00N 79°06' E 004°18'6 6.0 270 / 101011.0 1.7 0.4 7.1
2015-Jul-25 19:00N 79°00' E 004°18'1212.1 270 / 101010.6 1.4 0.4 6.4
2015-Jul-25 18:00N 78°48' E 004°24'6 6.0 280 / 101010.310.8 0.5 2.0 0.5 6.1
2015-Jul-25 17:00N 78°54' E 004°24'0 0.0 280 / 101010.3 1.6-0.2 6.2
2015-Jul-25 16:00N 78°54' E 004°24'6 6.4 270 / 101010.1 1.5 0.2 6.1
2015-Jul-25 15:00N 78°48' E 004°36'1313.4 280 / 101009.810.8 0.5 1.8 0.7 6.6
2015-Jul-25 14:00N 78°36' E 005°06'0 0.0 310 / 81009.6 2.1 1.4 7.0
2015-Jul-25 12:00N 78°36' E 005°06'   300 / 101009.0 5.4 0.5 2.5 1.6 7.1
Track history (hours):
 
Tides and Currents Weather Stations Pressure Air Temp Water Temp Dewpoint Dewpoint Depression Visibility Wind Speed Wind Dir Waves Ship Positions

Oceanographic research ship Polarstern (Germany)

Detailed information on ship capabilities available from University of Delaware's Ocean Information Center and ARCUS's ALIAS (Arctic Logistics Information and Support) project.

Last reported at 2015-Aug-04 12:00 UTC. Time now 2015-Aug-04 15:53 UTC.
Position N 79°48' E 004°18'.

Length 117.9 m; beam 25 m; draft 10.7 m.

MMSI: 211202460.

Wind from 200 at 16 knots

Barometer 1021.4 mb
Air temperature 4.8 ° C
Visibility: greater than 2.2 NM
Dewpoint 4.7 ° C
Water temperature 2.3 ° C

Date/timePositionNaut miles runAvg speedWind from/ knotsBaromVisibWave heightAir tempDewpointWater temp
2015-Aug-04 12:00N 79°48' E 004°18'6 6.0 200 / 161021.4 2.2 4.8 4.7 2.3
2015-Aug-04 11:00N 79°42' E 004°18'0 0.0 200 / 141021.5 3.7 3.7 2.1
2015-Aug-04 10:00N 79°42' E 004°18'0 0.0 210 / 141021.3 3.8 3.8 1.5
2015-Aug-04 09:00N 79°42' E 004°18'6 1.5 220 / 121021.0 0.1 3.1 3.1 2.0
2015-Aug-04 05:00N 79°48' E 004°18'6 6.4 190 / 81020.3 5.4 5.4 1.4
2015-Aug-04 04:00N 79°42' E 004°30'0 0.0 180 / 61019.9 6.8 6.8 2.3
2015-Aug-04 03:00N 79°42' E 004°30'1 1.1 180 / 81019.9 5.5 4.8 2.2
2015-Aug-04 02:00N 79°42' E 004°36'7 7.4 150 / 81020.0 6.4 5.5 0.8
2015-Aug-04 01:00N 79°36' E 005°00'3 3.2 140 / 61020.0 5.4 4.3 0.8
2015-Aug-04 00:00N 79°36' E 005°18'0 0.0 120 / 61020.2 5.3 4.1 4.7
2015-Aug-03 23:00N 79°36' E 005°18'1 1.1 090 / 21020.1 5.2 2.8 3.6
2015-Aug-03 22:00N 79°36' E 005°12'0 0.0 200 1020.2 5.7 3.8 5.0
2015-Aug-03 21:00N 79°36' E 005°12'0 0.0 170 1020.2 5.4 3.4 6.0
2015-Aug-03 20:00N 79°36' E 005°12'0 0.0 290 / 21020.0 5.1 3.0 7.1
2015-Aug-03 19:00N 79°36' E 005°12'7 6.8 290 / 21019.7 4.8 3.4 5.9
2015-Aug-03 18:00N 79°42' E 004°54'6 6.4 230 / 21019.727.0 5.0 3.3 1.6
2015-Aug-03 17:00N 79°42' E 004°18'0 0.0 230 / 41019.7 4.0 2.5 1.4
2015-Aug-03 15:00N 79°42' E 004°18'0 0.0 270 / 21019.610.8 5.2 3.1 1.7
2015-Aug-03 14:00N 79°42' E 004°18'1 0.5 320 / 21019.8 5.0 2.8 2.6
2015-Aug-03 12:00N 79°42' E 004°24'6 6.0 330 / 41019.510.8 5.2 3.4 2.7
2015-Aug-03 11:00N 79°48' E 004°24'0 0.0 320 / 41019.5 5.5 4.0 3.3
2015-Aug-03 09:00N 79°48' E 004°24'4 4.3 340 / 41019.410.8 5.0 3.6 6.9
2015-Aug-03 08:00N 79°48' E 004°00'8 8.0 340 / 61019.4 4.7 3.1 7.7
2015-Aug-03 07:00N 79°54' E 003°30'3 3.2 330 / 41019.3 3.4 1.7 5.8
2015-Aug-03 06:00N 79°54' E 003°12'0 0.0 310 / 61019.010.8 2.8 1.5 3.2
2015-Aug-03 05:00N 79°54' E 003°12'0 0.0 310 / 81019.0 2.5 0.7 3.2
2015-Aug-03 04:00N 79°54' E 003°12'0 0.0 310 / 61019.1 2.2 0.8 3.3
2015-Aug-03 03:00N 79°54' E 003°12'0 0.0 310 / 81019.2 2.1 0.5 3.5
2015-Aug-03 02:00N 79°54' E 003°12'0 0.0 310 / 61019.4 2.1 0.5 2.9
2015-Aug-03 01:00N 79°54' E 003°12'0 0.0 350 / 61019.6 1.5 0.1 3.5
2015-Aug-03 00:00N 79°54' E 003°12'0 0.0 340 / 61019.9 1.8 0.2 3.8
2015-Aug-02 23:00N 79°54' E 003°12'0 0.0 310 / 41019.9 2.9 0.9 3.0
2015-Aug-02 22:00N 79°54' E 003°12'0 0.0 310 / 41020.0 2.8 0.9 4.0
2015-Aug-02 21:00N 79°54' E 003°12'0 0.0 340 / 41020.0 2.7 1.0 4.2
2015-Aug-02 20:00N 79°54' E 003°12'0 0.0 020 / 41020.0 2.8 0.9 3.8
2015-Aug-02 19:00N 79°54' E 003°12'0 0.0 340 / 61020.2 2.5 0.9 3.7
2015-Aug-02 18:00N 79°54' E 003°12'7 6.8 340 / 61020.110.8 3.1 1.4 3.0
2015-Aug-02 17:00N 80°00' E 003°30'0 0.0 290 / 41020.2 4.2 2.7 1.6
2015-Aug-02 16:00N 80°00' E 003°30'0 0.0 260 / 41020.3 4.3 1.9 1.4
2015-Aug-02 15:00N 80°00' E 003°30'1 1.0 250 / 41020.3 5.4 5.0 1.5 1.2
2015-Aug-02 14:00N 80°00' E 003°24'1 1.0 180 / 21020.6 4.5 2.6 1.8
2015-Aug-02 13:00N 80°00' E 003°18'6 6.0 170 / 21020.8 5.4 2.7 3.2
2015-Aug-02 12:00N 79°54' E 003°18'0 0.0 230 / 21020.7 5.4 4.8 2.0 3.0
2015-Aug-02 11:00N 79°54' E 003°18'0 0.0 260 / 21020.5 3.9 1.0 3.1
2015-Aug-02 10:00N 79°54' E 003°18'6 6.0 260 / 41020.7 3.3 2.0 3.1
2015-Aug-02 09:00N 80°00' E 003°18'6 3.0 200 / 41020.6 5.4 2.9 1.3 1.6
2015-Aug-02 07:00N 79°54' E 003°18'6 6.4 340 / 41020.0 3.2 0.9 2.9
2015-Aug-02 06:00N 79°48' E 003°30'7 6.8 310 / 61020.210.8 3.7 1.4 1.6
2015-Aug-02 05:00N 79°42' E 003°48'1212.2 300 / 61020.3 2.9 1.3 1.6
2015-Aug-02 04:00N 79°30' E 004°00'6 6.1 330 / 21020.4 2.9 1.3 0.1
2015-Aug-02 03:00N 79°24' E 003°54'9 9.0 350 / 21020.8 4.7 2.2 3.8
2015-Aug-02 02:00N 79°18' E 003°18'8 7.8 010 / 21020.9 2.9 1.4 3.8
2015-Aug-02 01:00N 79°18' E 002°36'4 4.5 360 / 41021.1 2.0 1.1 5.1
2015-Aug-02 00:00N 79°18' E 002°12'1212.2 350 / 41021.1 3.2 2.0 7.6
2015-Aug-01 23:00N 79°06' E 002°00'6 6.1 310 / 61021.3 2.1 1.5 3.0
2015-Aug-01 22:00N 79°00' E 001°54'6 6.4 340 / 61021.4 2.3 1.4-1.1
2015-Aug-01 21:00N 78°54' E 001°42'7 6.9 360 / 61021.5 0.8 0.1-0.5
2015-Aug-01 20:00N 78°48' E 001°24'5 4.7 020 / 81021.6 0.4-0.4-1.2
2015-Aug-01 19:00N 78°48' E 001°00'2 2.3 360 / 81021.6 0.9-0.5-0.8
2015-Aug-01 18:00N 78°48' E 000°48'1010.1 350 / 101021.810.8 0.1-0.2 1.0
2015-Aug-01 17:00N 78°54' E 000°06'7 6.9 360 / 81021.9 0.4-0.0 3.6
2015-Aug-01 16:00N 78°54' W 000°30'2 2.3 360 / 101022.0 0.7 0.1 3.1
2015-Aug-01 15:00N 78°54' W 000°42'0 0.0 360 / 81022.110.8 0.5 1.0 0.5 4.1
2015-Aug-01 14:00N 78°54' W 000°42'1 1.2 020 / 101022.3 1.1 0.6 4.2
2015-Aug-01 13:00N 78°54' W 000°48'1 1.2 030 / 101022.3 1.2 0.7 4.2
2015-Aug-01 12:00N 78°54' W 000°42'0 0.0 020 / 141022.110.8 0.5 1.0 0.3 4.6
2015-Aug-01 11:00N 78°54' W 000°42'0 0.0 010 / 141021.8 0.9 0.3 4.1
2015-Aug-01 10:00N 78°54' W 000°42'0 0.0 010 / 121021.7 0.8 0.1 5.1
2015-Aug-01 09:00N 78°54' W 000°42'0 0.0 020 / 101021.710.8 0.5 1.1 0.2 4.7
2015-Aug-01 08:00N 78°54' W 000°42'0 0.0 020 / 121021.4 1.2 0.3 5.3
2015-Aug-01 07:00N 78°54' W 000°42'0 0.0 010 / 161021.1 1.1 0.2 4.3
2015-Aug-01 06:00N 78°54' W 000°42'5 4.6 020 / 141021.110.8 1.3-0.0 4.5
2015-Aug-01 05:00N 78°54' W 001°06'8 8.1 010 / 161020.8 1.0-0.0 3.9
2015-Aug-01 04:00N 78°54' W 001°48'6 5.8 010 / 161021.0 1.2 0.4 5.9
2015-Aug-01 03:00N 78°54' W 002°18'7 6.9 360 / 171021.3 1.1 0.3 1.0
2015-Aug-01 02:00N 78°54' W 002°54'2 2.3 360 / 171021.5 0.8 0.2-0.7
2015-Aug-01 01:00N 78°54' W 003°06'1 1.2 360 / 161022.0 0.6 0.2-0.3
2015-Aug-01 00:00N 78°54' W 003°00'0 0.0 350 / 171021.8 0.8 0.4-0.7
2015-Jul-31 23:00N 78°54' W 003°00'0 0.0 350 / 171022.1 0.9 0.4-1.2
2015-Jul-31 22:00N 78°54' W 003°00'0 0.0 350 / 171022.1 0.7 0.4-1.0
2015-Jul-31 21:00N 78°54' W 003°00'0 0.0 360 / 171022.2 1.4 0.6-1.2
2015-Jul-31 20:00N 78°54' W 003°00'0 0.0 010 / 171022.3 1.2 0.3-1.3
2015-Jul-31 19:00N 78°54' W 003°00'0 0.0 360 / 171022.1 1.0 0.2-1.3
2015-Jul-31 18:00N 78°54' W 003°00'0 0.0 360 / 171022.310.8 0.5 1.1 0.5-1.2
2015-Jul-31 17:00N 78°54' W 003°00'0 0.0 360 / 161022.5 0.9 0.2-1.2
2015-Jul-31 16:00N 78°54' W 003°00'1 1.2 360 / 171022.8 1.1 0.2-1.0
2015-Jul-31 15:00N 78°54' W 002°54'6 6.1 010 / 171022.410.8 0.5 1.1 0.6-0.8
2015-Jul-31 14:00N 78°48' W 002°48'1212.1 010 / 171022.3 0.7 0.6-0.5
2015-Jul-31 13:00N 78°36' W 002°54'6 6.1 360 / 171022.2 0.1 0.1-0.6
2015-Jul-31 12:00N 78°30' W 002°48'6 6.0 010 / 161022.2 2.2 0.5 0.2 0.2 2.1
2015-Jul-31 11:00N 78°36' W 002°48'0 0.0 020 / 161022.4 0.2 0.2 2.4
2015-Jul-31 10:00N 78°36' W 002°48'2 2.4 010 / 161022.4 0.2 0.2 1.9
2015-Jul-31 09:00N 78°36' W 003°00'1 1.2 010 / 161022.2 0.1 0.5-0.2-0.2-0.1
2015-Jul-31 08:00N 78°36' W 002°54'0 0.0 010 / 161022.1 -0.1-0.1-0.0
2015-Jul-31 07:00N 78°36' W 002°54'2 2.4 020 / 171021.8 -0.1-0.1 0.2
2015-Jul-31 06:00N 78°36' W 002°42'6 6.0 020 / 141021.9 0.3 0.1 0.1-1.3
2015-Jul-31 05:00N 78°42' W 002°42'1212.0 020 / 141022.1 0.3 0.3-0.8
2015-Jul-31 04:00N 78°54' W 002°42'0 0.0 010 / 141022.0 0.2 0.2-1.2
2015-Jul-31 03:00N 78°54' W 002°42'0 0.0 020 / 121022.1 0.4 0.4-0.9
2015-Jul-31 02:00N 78°54' W 002°42'0 0.0 030 / 121022.4 0.5 0.5-1.1
2015-Jul-31 00:00N 78°54' W 002°42'0 0.0 030 / 161022.1 0.3 0.3-0.7
2015-Jul-30 23:00N 78°54' W 002°42'0 0.0 020 / 141022.0 0.3 0.3-0.4
2015-Jul-30 22:00N 78°54' W 002°42'0 0.0 030 / 121022.1 0.2 0.2-0.0
2015-Jul-30 21:00N 78°54' W 002°42'0 0.0 060 / 121022.1 0.1 0.1 0.2
2015-Jul-30 20:00N 78°54' W 002°42'1 1.2 040 / 171021.5 0.3 0.1-0.5
2015-Jul-30 19:00N 78°54' W 002°48'0 0.0 050 / 161021.7 0.1 0.1-0.5
2015-Jul-30 18:00N 78°54' W 002°48'0 0.0 050 / 171021.6 5.4 0.3 0.1-0.3
2015-Jul-30 17:00N 78°54' W 002°48'6 6.0 050 / 171021.1 0.4 0.3-0.1
2015-Jul-30 16:00N 78°48' W 002°48'6 1.2 050 / 171021.1 0.3 0.1 0.7
2015-Jul-30 11:00N 78°42' W 002°48'12 4.0 050 / 171019.8 0.9 0.8-0.3
2015-Jul-30 08:00N 78°30' W 002°48'0 0.0 080 / 121018.8 5.8 5.6 5.0
2015-Jul-30 07:00N 78°30' W 002°48'8 4.2 090 / 121018.4 6.1 6.1 5.2
2015-Jul-30 05:00N 78°36' W 002°18'7 7.1 090 / 141017.6 5.9 5.9 0.5
2015-Jul-30 04:00N 78°36' W 001°42'9 9.3 080 / 141017.3 5.7 5.7 2.2
2015-Jul-30 03:00N 78°42' W 001°06'9 9.2 080 / 161017.3 5.3 5.3 5.4
2015-Jul-30 02:00N 78°48' W 000°30'7 7.0 100 / 121017.4 5.5 5.5 3.7
2015-Jul-30 01:00N 78°48' E 000°06'8 8.3 110 / 121017.0 5.5 5.5 5.4
2015-Jul-30 00:00N 78°54' E 000°36'9 9.1 100 / 161016.8 4.4 4.4 0.3
2015-Jul-29 23:00N 79°00' E 001°12'8 8.0 100 / 161016.6 6.3 6.1-0.9
2015-Jul-29 22:00N 79°00' E 001°54'9 9.1 110 / 161016.3 6.0 5.8 3.8
2015-Jul-29 21:00N 79°06' E 002°30'3 3.4 100 / 161016.0 6.9 6.3 0.8
2015-Jul-29 20:00N 79°06' E 002°48'0 0.0 100 / 161015.8 7.6 6.0 1.2
2015-Jul-29 19:00N 79°06' E 002°48'0 0.0 110 / 161015.4 7.5 6.0 1.4
2015-Jul-29 18:00N 79°06' E 002°48'0 0.0 100 / 191014.8 5.4 7.3 6.3-0.1
2015-Jul-29 17:00N 79°06' E 002°48'0 0.0 090 / 161014.4 7.3 6.4-0.2
2015-Jul-29 16:00N 79°06' E 002°48'0 0.0 100 / 161014.0 6.9 6.5 0.9
2015-Jul-29 15:00N 79°06' E 002°48'2 2.3 110 / 161013.6 5.4 7.3 6.6 0.6
2015-Jul-29 14:00N 79°06' E 003°00'3 1.7 120 / 161013.6 7.1 6.4 3.2
2015-Jul-29 12:00N 79°06' E 003°18'0 0.0 110 / 141012.6 5.4 7.3 6.0 3.8
2015-Jul-29 11:00N 79°06' E 003°18'0 0.0 110 / 121012.4 6.9 6.3 3.8
2015-Jul-29 10:00N 79°06' E 003°18'0 0.0 120 / 121012.0 6.8 6.2 3.8
2015-Jul-29 09:00N 79°06' E 003°18'0 0.0 120 / 141011.3 2.2 0.5 6.6 6.0 4.0
2015-Jul-29 08:00N 79°06' E 003°18'0 0.0 110 / 171010.9 7.2 5.8 4.2
2015-Jul-29 07:00N 79°06' E 003°18'2 1.1 110 / 171010.7 6.9 6.4 4.9
2015-Jul-29 05:00N 79°06' E 003°30'0 0.0 080 / 121010.0 6.5 5.3 5.8
2015-Jul-29 03:00N 79°06' E 003°30'0 0.0 060 / 101010.1 6.1 5.8 7.0
2015-Jul-29 02:00N 79°06' E 003°30'0 0.0 030 / 61010.5 5.9 5.6 7.0
2015-Jul-29 01:00N 79°06' E 003°30'1 0.6 040 / 61010.7 6.2 5.4 7.1
2015-Jul-28 23:00N 79°06' E 003°36'0 0.0 090 / 61010.6 5.7 4.7 6.6
2015-Jul-28 22:00N 79°06' E 003°36'0 0.0 070 / 21010.7 5.3 4.5 7.1
2015-Jul-28 21:00N 79°06' E 003°36'0 0.0 100 / 21011.0 4.8 4.2 7.1
2015-Jul-28 20:00N 79°06' E 003°36'0 0.0 230 / 21011.0 4.7 3.9 7.1
2015-Jul-28 19:00N 79°06' E 003°36'0 0.0 200 / 21011.0 4.4 3.7 6.9
2015-Jul-28 18:00N 79°06' E 003°36'0 0.0 200 / 21011.510.8 4.1 3.7 6.9
2015-Jul-28 17:00N 79°06' E 003°36'6 5.7 060 / 41011.9 3.6 3.6 6.9
2015-Jul-28 16:00N 79°06' E 004°06'0 0.0 020 / 61012.4 3.5 3.5 7.2
2015-Jul-28 15:00N 79°06' E 004°06'0 0.0 360 / 121012.910.8 1.0 3.1 2.8 7.2
2015-Jul-28 14:00N 79°06' E 004°06'0 0.0 020 / 171013.2 3.5 2.5 7.2
2015-Jul-28 13:00N 79°06' E 004°06'0 0.0 360 / 171013.9 3.5 3.1 7.2
2015-Jul-28 12:00N 79°06' E 004°06'0 0.0 010 / 171014.810.8 1.0 3.2 2.5 7.2
2015-Jul-28 11:00N 79°06' E 004°06'0 0.0 010 / 191015.7 3.2 3.0 7.2
2015-Jul-28 10:00N 79°06' E 004°06'0 0.0 010 / 191016.0 3.2 2.0 7.2
2015-Jul-28 09:00N 79°06' E 004°06'0 0.0 020 / 191016.7 5.4 1.0 4.4 3.1 7.2
2015-Jul-28 08:00N 79°06' E 004°06'0 0.0 040 / 171017.0 5.1 2.9 7.2
2015-Jul-28 07:00N 79°06' E 004°06'0 0.0 040 / 161017.5 5.2 4.0 7.1
2015-Jul-28 06:00N 79°06' E 004°06'5 4.5 040 / 161017.610.8 0.5 5.0 2.2 7.2
2015-Jul-28 05:00N 79°06' E 003°42'0 0.0 060 / 161018.1 5.4 2.2 7.0
2015-Jul-28 04:00N 79°06' E 003°42'0 0.0 040 / 141018.7 5.5 2.3 7.2
2015-Jul-28 03:00N 79°06' E 003°42'0 0.0 050 / 121019.0 5.6 2.1 7.4
2015-Jul-28 02:00N 79°06' E 003°42'0 0.0 060 / 101019.3 5.6 2.1 7.7
2015-Jul-28 01:00N 79°06' E 003°42'0 0.0 090 / 41019.7 5.7 1.4 7.4
2015-Jul-28 00:00N 79°06' E 003°42'0 0.0 110 / 61020.1 5.7 1.0 7.7
2015-Jul-27 23:00N 79°06' E 003°42'2 2.3 100 / 61020.3 5.4 2.7 7.3
2015-Jul-27 22:00N 79°06' E 003°54'3 3.4 100 / 41020.3 5.2 2.6 7.2
2015-Jul-27 21:00N 79°06' E 004°12'0 0.0 130 / 41020.2 5.3 1.8 7.2
2015-Jul-27 20:00N 79°06' E 004°12'1 1.1 150 / 41020.6 5.0 1.7 7.3
2015-Jul-27 19:00N 79°06' E 004°18'0 0.0 170 / 81020.5 4.9 1.4 7.3
2015-Jul-27 18:00N 79°06' E 004°18'2 2.3 160 / 61020.610.8 4.8 1.4 7.2
2015-Jul-27 17:00N 79°06' E 004°06'6 6.4 130 / 101020.8 4.5 2.5 7.0
2015-Jul-27 16:00N 79°12' E 003°54'0 0.0 170 / 41020.8 4.6 1.8 6.9
2015-Jul-27 15:00N 79°12' E 003°54'8 7.5 160 / 61020.810.8 4.4 1.4 7.0
2015-Jul-27 14:00N 79°06' E 004°18'6 6.1 170 / 81021.0 4.6 1.8 7.2
2015-Jul-27 13:00N 79°00' E 004°24'0 0.0 160 / 101021.1 4.3 1.2 7.1
2015-Jul-27 12:00N 79°00' E 004°24'0 0.0 180 / 101020.910.8 0.5 4.1 1.9 7.0
2015-Jul-27 11:00N 79°00' E 004°24'7 6.9 170 / 121020.7 4.0 1.9 7.1
2015-Jul-27 10:00N 79°06' E 004°06'0 0.0 170 / 121020.6 4.2 2.2 7.1
2015-Jul-27 09:00N 79°06' E 004°06'0 0.0 170 / 121020.510.8 0.5 4.1 2.1 6.9
2015-Jul-27 08:00N 79°06' E 004°06'1 1.1 180 / 121020.3 4.0 2.4 7.1
2015-Jul-27 07:00N 79°06' E 004°12'1 1.1 180 / 141020.3 4.4 2.4 7.0
2015-Jul-27 06:00N 79°06' E 004°06'1 1.1 170 / 141020.210.8 0.5 4.0 2.9 7.0
2015-Jul-27 05:00N 79°06' E 004°12'0 0.0 170 / 161020.0 3.9 2.8 6.8
2015-Jul-27 04:00N 79°06' E 004°12'0 0.0 180 / 161019.9 4.0 2.3 6.9
2015-Jul-27 03:00N 79°06' E 004°12'1 1.1 170 / 171019.7 3.8 2.1 6.9
2015-Jul-27 02:00N 79°06' E 004°18'0 0.0 180 / 171020.0 3.8 1.9 6.8
2015-Jul-27 01:00N 79°06' E 004°18'0 0.0 180 / 171019.8 4.1 1.8 6.8
2015-Jul-27 00:00N 79°06' E 004°18'6 6.1 180 / 171019.8 4.4 1.7 6.8
2015-Jul-26 23:00N 79°00' E 004°12'0 0.0 180 / 161019.9 4.6 2.1 6.8
2015-Jul-26 22:00N 79°00' E 004°12'0 0.0 180 / 141019.9 4.5 2.1 6.8
2015-Jul-26 21:00N 79°00' E 004°12'0 0.0 170 / 141019.8 4.1 1.7 6.6
2015-Jul-26 20:00N 79°00' E 004°12'6 6.1 160 / 141019.6 3.8 1.7 7.0
2015-Jul-26 19:00N 79°06' E 004°06'0 0.0 160 / 101019.6 3.8 1.9 7.1
2015-Jul-26 18:00N 79°06' E 004°06'0 0.0 170 / 81019.710.8 4.1 2.1 6.4
2015-Jul-26 17:00N 79°06' E 004°06'0 0.0 180 / 61019.6 3.9 1.6 6.5
2015-Jul-26 16:00N 79°06' E 004°06'0 0.0 200 / 61019.6 3.6 1.4 6.7
2015-Jul-26 15:00N 79°06' E 004°06'0 0.0 240 / 61019.410.8 3.0 1.1 6.9
2015-Jul-26 14:00N 79°06' E 004°06'0 0.0 220 / 81019.2 2.2 0.7 7.1
2015-Jul-26 13:00N 79°06' E 004°06'0 0.0 240 / 81018.7 2.1 0.5 7.1
2015-Jul-26 12:00N 79°06' E 004°06'0 0.0 240 / 81018.427.0 2.0 0.5 7.0
2015-Jul-26 11:00N 79°06' E 004°06'0 0.0 250 / 81018.1 1.5-0.0 7.0
2015-Jul-26 10:00N 79°06' E 004°06'0 0.0 240 / 101017.6 1.2-0.1 6.7
2015-Jul-26 09:00N 79°06' E 004°06'0 0.0 250 / 101017.210.8 1.4-0.0 7.0
2015-Jul-26 08:00N 79°06' E 004°06'1 1.1 250 / 101016.4 1.2-0.3 6.9
2015-Jul-26 07:00N 79°06' E 004°12'0 0.0 250 / 121016.0 1.1-0.0 6.9
2015-Jul-26 06:00N 79°06' E 004°12'0 0.0 260 / 101015.510.8 1.4-0.5 6.9
2015-Jul-26 05:00N 79°06' E 004°12'0 0.0 260 / 101015.1 0.8-0.1 6.8
2015-Jul-26 04:00N 79°06' E 004°12'0 0.0 270 / 101014.6 0.8-0.2 6.9
2015-Jul-26 03:00N 79°06' E 004°12'0 0.0 280 / 121014.0 0.9-0.8 6.9
2015-Jul-26 02:00N 79°06' E 004°12'0 0.0 270 / 121013.7 0.9-0.2 7.0
2015-Jul-26 01:00N 79°06' E 004°12'0 0.0 270 / 101013.2 1.4 0.1 6.9
2015-Jul-26 00:00N 79°06' E 004°12'0 0.0 270 / 101012.7 1.2-0.2 6.9
2015-Jul-25 23:00N 79°06' E 004°12'0 0.0 270 / 101012.2 1.5 0.2 7.0
2015-Jul-25 22:00N 79°06' E 004°12'1 1.1 260 / 101011.6 1.3-0.1 7.1
2015-Jul-25 21:00N 79°06' E 004°18'0 0.0 260 / 101011.3 1.4 0.6 7.1
2015-Jul-25 20:00N 79°06' E 004°18'6 6.0 270 / 101011.0 1.7 0.4 7.1
2015-Jul-25 19:00N 79°00' E 004°18'1212.1 270 / 101010.6 1.4 0.4 6.4
2015-Jul-25 18:00N 78°48' E 004°24'6 6.0 280 / 101010.310.8 0.5 2.0 0.5 6.1
2015-Jul-25 17:00N 78°54' E 004°24'0 0.0 280 / 101010.3 1.6-0.2 6.2
2015-Jul-25 16:00N 78°54' E 004°24'6 6.4 270 / 101010.1 1.5 0.2 6.1
2015-Jul-25 15:00N 78°48' E 004°36'1313.4 280 / 101009.810.8 0.5 1.8 0.7 6.6
2015-Jul-25 14:00N 78°36' E 005°06'0 0.0 310 / 81009.6 2.1 1.4 7.0
2015-Jul-25 12:00N 78°36' E 005°06'   300 / 101009.0 5.4 0.5 2.5 1.6 7.1

Dump ship's entire track history